sensor_id;sensor_type;location;lat;lon;timestamp;pressure;altitude;pressure_sealevel;temperature;humidity
9141;BME280;46330;50.822;7.126;2023-02-10T00:01:07;102898.41;;;0.81;91.22
9141;BME280;46330;50.822;7.126;2023-02-10T00:03:35;102898.00;;;0.74;90.40
9141;BME280;46330;50.822;7.126;2023-02-10T00:06:04;102899.16;;;0.79;91.20
9141;BME280;46330;50.822;7.126;2023-02-10T00:08:33;102891.75;;;0.85;90.61
9141;BME280;46330;50.822;7.126;2023-02-10T00:11:03;102894.00;;;0.79;91.47
9141;BME280;46330;50.822;7.126;2023-02-10T00:13:32;102898.34;;;0.80;91.12
9141;BME280;46330;50.822;7.126;2023-02-10T00:16:02;102916.56;;;0.83;91.34
9141;BME280;46330;50.822;7.126;2023-02-10T00:18:31;102905.28;;;0.81;91.54
9141;BME280;46330;50.822;7.126;2023-02-10T00:21:05;102897.47;;;0.79;91.13
9141;BME280;46330;50.822;7.126;2023-02-10T00:23:33;102913.09;;;0.82;91.15
9141;BME280;46330;50.822;7.126;2023-02-10T00:26:02;102919.13;;;0.83;90.78
9141;BME280;46330;50.822;7.126;2023-02-10T00:28:32;102925.91;;;0.81;91.43
9141;BME280;46330;50.822;7.126;2023-02-10T00:31:06;102922.66;;;0.85;90.73
9141;BME280;46330;50.822;7.126;2023-02-10T00:33:34;102921.94;;;0.87;90.84
9141;BME280;46330;50.822;7.126;2023-02-10T00:36:03;102920.38;;;0.89;90.72
9141;BME280;46330;50.822;7.126;2023-02-10T00:38:31;102925.25;;;0.85;91.47
9141;BME280;46330;50.822;7.126;2023-02-10T00:41:02;102917.09;;;0.77;91.93
9141;BME280;46330;50.822;7.126;2023-02-10T00:43:30;102923.38;;;0.82;91.49
9141;BME280;46330;50.822;7.126;2023-02-10T00:45:58;102920.38;;;0.89;90.89
9141;BME280;46330;50.822;7.126;2023-02-10T00:48:27;102922.13;;;0.90;91.69
9141;BME280;46330;50.822;7.126;2023-02-10T00:50:55;102928.16;;;0.91;91.53
9141;BME280;46330;50.822;7.126;2023-02-10T00:53:23;102930.84;;;0.92;91.42
9141;BME280;46330;50.822;7.126;2023-02-10T00:55:51;102932.69;;;0.95;90.57
9141;BME280;46330;50.822;7.126;2023-02-10T00:58:22;102922.31;;;0.93;91.34
9141;BME280;46330;50.822;7.126;2023-02-10T01:00:50;102944.78;;;0.96;91.33
9141;BME280;46330;50.822;7.126;2023-02-10T01:03:18;102934.56;;;0.97;91.69
9141;BME280;46330;50.822;7.126;2023-02-10T01:05:48;102938.75;;;0.95;90.95
9141;BME280;46330;50.822;7.126;2023-02-10T01:08:16;102934.13;;;0.90;91.46
9141;BME280;46330;50.822;7.126;2023-02-10T01:10:44;102931.00;;;0.95;91.80
9141;BME280;46330;50.822;7.126;2023-02-10T01:13:13;102934.47;;;0.96;91.92
9141;BME280;46330;50.822;7.126;2023-02-10T01:15:42;102937.22;;;0.99;92.04
9141;BME280;46330;50.822;7.126;2023-02-10T01:18:10;102938.38;;;1.04;92.66
9141;BME280;46330;50.822;7.126;2023-02-10T01:20:39;102941.84;;;1.04;92.12
9141;BME280;46330;50.822;7.126;2023-02-10T01:23:09;102940.88;;;1.02;92.13
9141;BME280;46330;50.822;7.126;2023-02-10T01:25:38;102943.63;;;1.05;91.92
9141;BME280;46330;50.822;7.126;2023-02-10T01:28:06;102945.31;;;1.05;92.29
9141;BME280;46330;50.822;7.126;2023-02-10T01:30:34;102945.38;;;1.06;91.42
9141;BME280;46330;50.822;7.126;2023-02-10T01:33:02;102947.94;;;1.06;91.79
9141;BME280;46330;50.822;7.126;2023-02-10T01:35:30;102957.47;;;1.07;91.82
9141;BME280;46330;50.822;7.126;2023-02-10T01:37:58;102946.19;;;1.05;92.77
9141;BME280;46330;50.822;7.126;2023-02-10T01:40:27;102961.56;;;1.04;92.45
9141;BME280;46330;50.822;7.126;2023-02-10T01:42:55;102953.22;;;1.08;92.26
9141;BME280;46330;50.822;7.126;2023-02-10T01:45:27;102951.53;;;1.08;92.80
9141;BME280;46330;50.822;7.126;2023-02-10T01:47:56;102949.63;;;1.06;93.61
9141;BME280;46330;50.822;7.126;2023-02-10T01:50:27;102941.13;;;1.07;93.31
9141;BME280;46330;50.822;7.126;2023-02-10T01:52:56;102951.69;;;1.12;92.72
9141;BME280;46330;50.822;7.126;2023-02-10T01:55:28;102943.06;;;1.11;93.39
9141;BME280;46330;50.822;7.126;2023-02-10T01:58:00;102954.50;;;1.16;92.85
9141;BME280;46330;50.822;7.126;2023-02-10T02:00:29;102949.53;;;1.19;93.30
9141;BME280;46330;50.822;7.126;2023-02-10T02:02:57;102958.88;;;1.17;93.07
9141;BME280;46330;50.822;7.126;2023-02-10T02:05:31;102956.63;;;1.23;92.59
9141;BME280;46330;50.822;7.126;2023-02-10T02:08:03;102954.84;;;1.22;92.20
9141;BME280;46330;50.822;7.126;2023-02-10T02:10:42;102950.75;;;1.26;92.91
9141;BME280;46330;50.822;7.126;2023-02-10T02:13:16;102962.56;;;1.22;92.13
9141;BME280;46330;50.822;7.126;2023-02-10T02:15:51;102960.16;;;1.25;92.52
9141;BME280;46330;50.822;7.126;2023-02-10T02:18:25;102949.97;;;1.27;92.92
9141;BME280;46330;50.822;7.126;2023-02-10T02:21:32;102955.19;;;1.28;91.94
9141;BME280;46330;50.822;7.126;2023-02-10T02:24:30;102952.28;;;1.22;92.48
9141;BME280;46330;50.822;7.126;2023-02-10T02:27:19;102957.69;;;1.27;92.47
9141;BME280;46330;50.822;7.126;2023-02-10T02:30:07;102954.22;;;1.26;92.70
9141;BME280;46330;50.822;7.126;2023-02-10T02:32:43;102964.81;;;1.31;93.09
9141;BME280;46330;50.822;7.126;2023-02-10T02:35:14;102965.66;;;1.31;91.98
9141;BME280;46330;50.822;7.126;2023-02-10T02:37:46;102957.88;;;1.30;92.51
9141;BME280;46330;50.822;7.126;2023-02-10T02:40:15;102956.09;;;1.29;93.11
9141;BME280;46330;50.822;7.126;2023-02-10T02:42:44;102965.84;;;1.34;93.33
9141;BME280;46330;50.822;7.126;2023-02-10T02:45:16;102966.56;;;1.32;93.83
9141;BME280;46330;50.822;7.126;2023-02-10T02:48:05;102965.16;;;1.37;94.07
9141;BME280;46330;50.822;7.126;2023-02-10T02:50:41;102958.53;;;1.42;94.28
9141;BME280;46330;50.822;7.126;2023-02-10T02:53:21;102961.41;;;1.32;92.92
9141;BME280;46330;50.822;7.126;2023-02-10T02:55:58;102965.16;;;1.37;94.02
9141;BME280;46330;50.822;7.126;2023-02-10T02:58:35;102959.00;;;1.35;94.44
9141;BME280;46330;50.822;7.126;2023-02-10T03:01:10;102971.00;;;1.34;93.97
9141;BME280;46330;50.822;7.126;2023-02-10T03:03:41;102972.16;;;1.39;93.49
9141;BME280;46330;50.822;7.126;2023-02-10T03:06:09;102979.88;;;1.39;93.36
9141;BME280;46330;50.822;7.126;2023-02-10T03:08:39;102968.50;;;1.36;94.16
9141;BME280;46330;50.822;7.126;2023-02-10T03:11:08;102971.88;;;1.35;94.03
9141;BME280;46330;50.822;7.126;2023-02-10T03:13:35;102978.81;;;1.36;94.51
9141;BME280;46330;50.822;7.126;2023-02-10T03:16:04;102982.28;;;1.36;94.54
9141;BME280;46330;50.822;7.126;2023-02-10T03:18:32;102980.44;;;1.34;94.40
9141;BME280;46330;50.822;7.126;2023-02-10T03:21:01;102980.69;;;1.38;94.70
9141;BME280;46330;50.822;7.126;2023-02-10T03:23:29;102982.63;;;1.42;94.45
9141;BME280;46330;50.822;7.126;2023-02-10T03:25:57;102984.38;;;1.43;94.83
9141;BME280;46330;50.822;7.126;2023-02-10T03:28:26;102981.97;;;1.46;94.26
9141;BME280;46330;50.822;7.126;2023-02-10T03:30:54;102994.25;;;1.50;94.75
9141;BME280;46330;50.822;7.126;2023-02-10T03:33:23;102981.34;;;1.50;94.50
9141;BME280;46330;50.822;7.126;2023-02-10T03:35:51;102982.19;;;1.49;93.99
9141;BME280;46330;50.822;7.126;2023-02-10T03:38:22;102980.22;;;1.45;95.23
9141;BME280;46330;50.822;7.126;2023-02-10T03:40:50;102986.00;;;1.41;95.22
9141;BME280;46330;50.822;7.126;2023-02-10T03:43:18;102999.06;;;1.44;95.00
9141;BME280;46330;50.822;7.126;2023-02-10T03:45:46;103004.38;;;1.47;95.56
9141;BME280;46330;50.822;7.126;2023-02-10T03:48:15;103005.28;;;1.48;94.82
9141;BME280;46330;50.822;7.126;2023-02-10T03:50:43;103002.81;;;1.49;95.18
9141;BME280;46330;50.822;7.126;2023-02-10T03:53:11;102998.44;;;1.48;95.02
9141;BME280;46330;50.822;7.126;2023-02-10T03:55:40;102996.19;;;1.54;95.01
9141;BME280;46330;50.822;7.126;2023-02-10T03:58:08;102991.59;;;1.49;95.59
9141;BME280;46330;50.822;7.126;2023-02-10T04:00:36;102983.69;;;1.46;95.30
9141;BME280;46330;50.822;7.126;2023-02-10T04:03:04;102979.22;;;1.43;95.59
9141;BME280;46330;50.822;7.126;2023-02-10T04:05:32;102980.44;;;1.34;95.50
9141;BME280;46330;50.822;7.126;2023-02-10T04:08:00;102975.13;;;1.31;96.69
9141;BME280;46330;50.822;7.126;2023-02-10T04:10:27;102968.00;;;1.27;96.98
9141;BME280;46330;50.822;7.126;2023-02-10T04:12:57;102972.88;;;1.22;96.85
9141;BME280;46330;50.822;7.126;2023-02-10T04:15:25;102968.72;;;1.09;97.32
9141;BME280;46330;50.822;7.126;2023-02-10T04:17:52;102978.16;;;1.09;97.96
9141;BME280;46330;50.822;7.126;2023-02-10T04:20:24;102971.84;;;1.04;97.72
9141;BME280;46330;50.822;7.126;2023-02-10T04:22:52;102968.50;;;1.05;97.54
9141;BME280;46330;50.822;7.126;2023-02-10T04:25:19;102961.66;;;0.91;98.41
9141;BME280;46330;50.822;7.126;2023-02-10T04:27:48;102960.50;;;0.86;100.00
9141;BME280;46330;50.822;7.126;2023-02-10T04:30:18;102959.44;;;0.82;100.00
9141;BME280;46330;50.822;7.126;2023-02-10T04:32:46;102960.78;;;0.76;100.00
9141;BME280;46330;50.822;7.126;2023-02-10T04:35:14;102960.59;;;0.73;100.00
9141;BME280;46330;50.822;7.126;2023-02-10T04:37:42;102953.31;;;0.66;100.00
9141;BME280;46330;50.822;7.126;2023-02-10T04:40:10;102961.16;;;0.67;100.00
9141;BME280;46330;50.822;7.126;2023-02-10T04:42:37;102965.34;;;0.65;100.00
9141;BME280;46330;50.822;7.126;2023-02-10T04:45:06;102978.53;;;0.57;100.00
9141;BME280;46330;50.822;7.126;2023-02-10T04:47:36;102970.72;;;0.55;100.00
9141;BME280;46330;50.822;7.126;2023-02-10T04:50:04;102980.03;;;0.53;100.00
9141;BME280;46330;50.822;7.126;2023-02-10T04:52:32;102982.59;;;0.53;100.00
9141;BME280;46330;50.822;7.126;2023-02-10T04:55:00;102980.13;;;0.54;100.00
9141;BME280;46330;50.822;7.126;2023-02-10T04:57:28;102989.72;;;0.57;100.00
9141;BME280;46330;50.822;7.126;2023-02-10T04:59:56;102988.22;;;0.61;100.00
9141;BME280;46330;50.822;7.126;2023-02-10T05:02:24;102991.59;;;0.60;100.00
9141;BME280;46330;50.822;7.126;2023-02-10T05:04:53;102986.78;;;0.51;100.00
9141;BME280;46330;50.822;7.126;2023-02-10T05:07:21;102993.72;;;0.52;100.00
9141;BME280;46330;50.822;7.126;2023-02-10T05:09:48;102996.19;;;0.50;100.00
9141;BME280;46330;50.822;7.126;2023-02-10T05:12:16;102984.38;;;0.39;100.00
9141;BME280;46330;50.822;7.126;2023-02-10T05:14:44;102994.22;;;0.32;100.00
9141;BME280;46330;50.822;7.126;2023-02-10T05:17:12;103000.25;;;0.32;100.00
9141;BME280;46330;50.822;7.126;2023-02-10T05:19:40;102994.75;;;0.26;99.76
9141;BME280;46330;50.822;7.126;2023-02-10T05:22:09;102990.13;;;0.21;99.56
9141;BME280;46330;50.822;7.126;2023-02-10T05:24:37;102995.69;;;0.14;99.80
9141;BME280;46330;50.822;7.126;2023-02-10T05:27:05;102996.91;;;0.06;100.00
9141;BME280;46330;50.822;7.126;2023-02-10T05:29:33;103002.13;;;0.07;100.00
9141;BME280;46330;50.822;7.126;2023-02-10T05:32:01;103004.53;;;0.04;100.00
9141;BME280;46330;50.822;7.126;2023-02-10T05:34:29;103000.28;;;0.05;100.00
9141;BME280;46330;50.822;7.126;2023-02-10T05:36:57;103002.44;;;0.12;100.00
9141;BME280;46330;50.822;7.126;2023-02-10T05:39:26;103001.63;;;0.13;100.00
9141;BME280;46330;50.822;7.126;2023-02-10T05:41:55;103005.72;;;0.09;100.00
9141;BME280;46330;50.822;7.126;2023-02-10T05:44:25;103003.22;;;0.11;100.00
9141;BME280;46330;50.822;7.126;2023-02-10T05:46:53;102997.88;;;0.08;100.00
9141;BME280;46330;50.822;7.126;2023-02-10T05:49:21;103006.31;;;0.05;100.00
9141;BME280;46330;50.822;7.126;2023-02-10T05:51:49;102999.69;;;0.09;100.00
9141;BME280;46330;50.822;7.126;2023-02-10T05:54:18;103011.53;;;0.07;100.00
9141;BME280;46330;50.822;7.126;2023-02-10T05:56:47;103005.41;;;0.05;100.00
9141;BME280;46330;50.822;7.126;2023-02-10T05:59:18;103006.91;;;0.01;100.00
9141;BME280;46330;50.822;7.126;2023-02-10T06:01:46;103013.34;;;-0.06;100.00
9141;BME280;46330;50.822;7.126;2023-02-10T06:04:14;103012.28;;;-0.09;99.95
9141;BME280;46330;50.822;7.126;2023-02-10T06:06:42;103008.34;;;-0.17;99.70
9141;BME280;46330;50.822;7.126;2023-02-10T06:09:10;102999.28;;;-0.25;99.93
9141;BME280;46330;50.822;7.126;2023-02-10T06:11:38;103017.09;;;-0.28;100.00
9141;BME280;46330;50.822;7.126;2023-02-10T06:14:08;103020.47;;;-0.42;100.00
9141;BME280;46330;50.822;7.126;2023-02-10T06:16:36;103016.41;;;-0.39;100.00
9141;BME280;46330;50.822;7.126;2023-02-10T06:19:04;103018.09;;;-0.39;100.00
9141;BME280;46330;50.822;7.126;2023-02-10T06:21:32;103016.03;;;-0.45;100.00
9141;BME280;46330;50.822;7.126;2023-02-10T06:24:00;103023.63;;;-0.46;100.00
9141;BME280;46330;50.822;7.126;2023-02-10T06:26:28;103024.72;;;-0.43;100.00
9141;BME280;46330;50.822;7.126;2023-02-10T06:28:56;103015.25;;;-0.44;100.00
9141;BME280;46330;50.822;7.126;2023-02-10T06:31:25;103014.34;;;-0.44;100.00
9141;BME280;46330;50.822;7.126;2023-02-10T06:33:53;103012.47;;;-0.47;100.00
9141;BME280;46330;50.822;7.126;2023-02-10T06:36:21;103020.47;;;-0.42;100.00
9141;BME280;46330;50.822;7.126;2023-02-10T06:38:49;103030.94;;;-0.39;100.00
9141;BME280;46330;50.822;7.126;2023-02-10T06:41:17;103024.13;;;-0.39;100.00
9141;BME280;46330;50.822;7.126;2023-02-10T06:43:45;103047.56;;;-0.47;100.00
9141;BME280;46330;50.822;7.126;2023-02-10T06:46:14;103045.59;;;-0.51;100.00
9141;BME280;46330;50.822;7.126;2023-02-10T06:48:43;103047.25;;;-0.52;100.00
9141;BME280;46330;50.822;7.126;2023-02-10T06:51:11;103052.00;;;-0.58;100.00
9141;BME280;46330;50.822;7.126;2023-02-10T06:53:39;103047.38;;;-0.64;100.00
9141;BME280;46330;50.822;7.126;2023-02-10T06:56:09;103053.59;;;-0.60;100.00
9141;BME280;46330;50.822;7.126;2023-02-10T06:58:37;103051.81;;;-0.61;100.00
9141;BME280;46330;50.822;7.126;2023-02-10T07:01:07;103057.16;;;-0.58;100.00
9141;BME280;46330;50.822;7.126;2023-02-10T07:03:35;103065.84;;;-0.56;100.00
9141;BME280;46330;50.822;7.126;2023-02-10T07:06:05;103064.16;;;-0.56;100.00
9141;BME280;46330;50.822;7.126;2023-02-10T07:08:33;103064.06;;;-0.57;100.00
9141;BME280;46330;50.822;7.126;2023-02-10T07:11:01;103078.09;;;-0.52;100.00
9141;BME280;46330;50.822;7.126;2023-02-10T07:13:29;103086.13;;;-0.47;100.00
9141;BME280;46330;50.822;7.126;2023-02-10T07:15:57;103085.63;;;-0.42;100.00
9141;BME280;46330;50.822;7.126;2023-02-10T07:18:25;103091.66;;;-0.41;100.00
9141;BME280;46330;50.822;7.126;2023-02-10T07:20:54;103094.81;;;-0.32;100.00
9141;BME280;46330;50.822;7.126;2023-02-10T07:23:23;103090.34;;;-0.22;100.00
9141;BME280;46330;50.822;7.126;2023-02-10T07:26:02;103096.38;;;-0.21;100.00
9141;BME280;46330;50.822;7.126;2023-02-10T07:28:31;103094.69;;;-0.21;100.00
9141;BME280;46330;50.822;7.126;2023-02-10T07:30:59;103090.84;;;-0.14;100.00
9141;BME280;46330;50.822;7.126;2023-02-10T07:33:27;103099.31;;;-0.02;100.00
9141;BME280;46330;50.822;7.126;2023-02-10T07:35:58;103103.28;;;0.06;100.00
9141;BME280;46330;50.822;7.126;2023-02-10T07:38:28;103099.38;;;0.13;100.00
9141;BME280;46330;50.822;7.126;2023-02-10T07:40:56;103097.88;;;0.16;100.00
9141;BME280;46330;50.822;7.126;2023-02-10T07:43:24;103094.34;;;0.14;100.00
9141;BME280;46330;50.822;7.126;2023-02-10T07:46:00;103093.03;;;0.21;100.00
9141;BME280;46330;50.822;7.126;2023-02-10T07:48:28;103091.75;;;0.27;100.00
9141;BME280;46330;50.822;7.126;2023-02-10T07:50:56;103075.84;;;0.34;100.00
9141;BME280;46330;50.822;7.126;2023-02-10T07:53:24;103090.53;;;0.35;100.00
9141;BME280;46330;50.822;7.126;2023-02-10T07:55:53;103085.66;;;0.40;100.00
9141;BME280;46330;50.822;7.126;2023-02-10T07:58:21;103094.47;;;0.43;100.00
9141;BME280;46330;50.822;7.126;2023-02-10T08:00:49;103090.28;;;0.45;100.00
9141;BME280;46330;50.822;7.126;2023-02-10T08:03:17;103090.38;;;0.47;100.00
9141;BME280;46330;50.822;7.126;2023-02-10T08:05:45;103080.25;;;0.50;100.00
9141;BME280;46330;50.822;7.126;2023-02-10T08:08:15;103091.03;;;0.58;100.00
9141;BME280;46330;50.822;7.126;2023-02-10T08:10:43;103086.78;;;0.58;100.00
9141;BME280;46330;50.822;7.126;2023-02-10T08:13:12;103091.75;;;0.70;100.00
9141;BME280;46330;50.822;7.126;2023-02-10T08:15:40;103089.66;;;0.77;100.00
9141;BME280;46330;50.822;7.126;2023-02-10T08:18:08;103086.13;;;0.90;100.00
9141;BME280;46330;50.822;7.126;2023-02-10T08:20:36;103100.16;;;0.95;100.00
9141;BME280;46330;50.822;7.126;2023-02-10T08:23:03;103096.50;;;1.06;100.00
9141;BME280;46330;50.822;7.126;2023-02-10T08:25:32;103097.41;;;1.06;100.00
9141;BME280;46330;50.822;7.126;2023-02-10T08:28:00;103093.69;;;1.01;100.00
9141;BME280;46330;50.822;7.126;2023-02-10T08:30:29;103091.81;;;0.99;100.00
9141;BME280;46330;50.822;7.126;2023-02-10T08:32:57;103097.75;;;0.98;100.00
9141;BME280;46330;50.822;7.126;2023-02-10T08:35:25;103108.53;;;1.05;100.00
9141;BME280;46330;50.822;7.126;2023-02-10T08:37:53;103096.31;;;1.03;100.00
9141;BME280;46330;50.822;7.126;2023-02-10T08:40:21;103102.72;;;1.09;100.00
9141;BME280;46330;50.822;7.126;2023-02-10T08:42:49;103093.31;;;1.10;100.00
9141;BME280;46330;50.822;7.126;2023-02-10T08:45:18;103087.38;;;1.11;100.00
9141;BME280;46330;50.822;7.126;2023-02-10T08:47:48;103092.00;;;1.17;100.00
9141;BME280;46330;50.822;7.126;2023-02-10T08:50:16;103084.72;;;1.24;100.00
9141;BME280;46330;50.822;7.126;2023-02-10T08:52:44;103100.00;;;1.36;100.00
9141;BME280;46330;50.822;7.126;2023-02-10T08:55:12;103097.38;;;1.50;100.00
9141;BME280;46330;50.822;7.126;2023-02-10T08:57:40;103096.38;;;1.63;100.00
9141;BME280;46330;50.822;7.126;2023-02-10T09:00:08;103104.56;;;1.71;99.69
9141;BME280;46330;50.822;7.126;2023-02-10T09:02:37;103116.75;;;1.73;99.18
9141;BME280;46330;50.822;7.126;2023-02-10T09:05:06;103114.56;;;1.81;98.25
9141;BME280;46330;50.822;7.126;2023-02-10T09:07:37;103113.84;;;1.98;98.88
9141;BME280;46330;50.822;7.126;2023-02-10T09:10:05;103112.38;;;2.03;98.40
9141;BME280;46330;50.822;7.126;2023-02-10T09:12:37;103111.03;;;2.09;97.97
9141;BME280;46330;50.822;7.126;2023-02-10T09:15:07;103104.28;;;2.28;96.60
9141;BME280;46330;50.822;7.126;2023-02-10T09:17:35;103106.41;;;2.35;95.94
9141;BME280;46330;50.822;7.126;2023-02-10T09:20:03;103114.06;;;2.33;95.37
9141;BME280;46330;50.822;7.126;2023-02-10T09:22:33;103110.94;;;2.39;95.66
9141;BME280;46330;50.822;7.126;2023-02-10T09:25:01;103115.69;;;2.47;94.99
9141;BME280;46330;50.822;7.126;2023-02-10T09:27:29;103114.47;;;2.41;95.43
9141;BME280;46330;50.822;7.126;2023-02-10T09:29:57;103113.09;;;2.47;95.60
9141;BME280;46330;50.822;7.126;2023-02-10T09:32:25;103110.53;;;2.63;94.82
9141;BME280;46330;50.822;7.126;2023-02-10T09:34:53;103113.66;;;2.74;94.67
9141;BME280;46330;50.822;7.126;2023-02-10T09:37:21;103107.09;;;2.97;93.12
9141;BME280;46330;50.822;7.126;2023-02-10T09:39:50;103104.88;;;3.20;92.43
9141;BME280;46330;50.822;7.126;2023-02-10T09:42:24;103108.53;;;3.77;89.66
9141;BME280;46330;50.822;7.126;2023-02-10T09:44:58;103114.72;;;4.73;85.12
9141;BME280;46330;50.822;7.126;2023-02-10T09:47:37;103104.84;;;4.84;82.26
9141;BME280;46330;50.822;7.126;2023-02-10T09:53:09;103118.88;;;5.70;78.46
9141;BME280;46330;50.822;7.126;2023-02-10T09:55:45;103110.16;;;5.89;77.87
9141;BME280;46330;50.822;7.126;2023-02-10T09:58:19;103113.28;;;6.03;76.99
9141;BME280;46330;50.822;7.126;2023-02-10T10:00:51;103109.94;;;6.51;74.65
9141;BME280;46330;50.822;7.126;2023-02-10T10:03:25;103113.84;;;7.11;71.92
9141;BME280;46330;50.822;7.126;2023-02-10T10:06:02;103117.72;;;7.74;69.17
9141;BME280;46330;50.822;7.126;2023-02-10T10:08:38;103119.91;;;8.16;67.14
9141;BME280;46330;50.822;7.126;2023-02-10T10:11:22;103127.47;;;8.64;64.56
9141;BME280;46330;50.822;7.126;2023-02-10T10:13:51;103128.31;;;8.34;65.25
9141;BME280;46330;50.822;7.126;2023-02-10T10:16:38;103118.75;;;8.34;65.11
9141;BME280;46330;50.822;7.126;2023-02-10T10:19:19;103123.19;;;9.31;61.97
9141;BME280;46330;50.822;7.126;2023-02-10T10:21:55;103122.59;;;9.08;61.07
9141;BME280;46330;50.822;7.126;2023-02-10T10:24:37;103120.16;;;8.83;62.88
9141;BME280;46330;50.822;7.126;2023-02-10T10:27:17;103120.88;;;8.77;62.28
9141;BME280;46330;50.822;7.126;2023-02-10T10:29:51;103131.06;;;9.32;61.34
9141;BME280;46330;50.822;7.126;2023-02-10T10:32:30;103130.66;;;9.17;61.32
9141;BME280;46330;50.822;7.126;2023-02-10T10:35:02;103138.34;;;8.50;63.27
9141;BME280;46330;50.822;7.126;2023-02-10T10:37:31;103141.34;;;8.63;62.85
9141;BME280;46330;50.822;7.126;2023-02-10T10:40:01;103130.38;;;8.75;62.82
9141;BME280;46330;50.822;7.126;2023-02-10T10:42:40;103135.78;;;8.51;62.16
9141;BME280;46330;50.822;7.126;2023-02-10T10:45:13;103149.84;;;8.28;63.98
9141;BME280;46330;50.822;7.126;2023-02-10T10:47:45;103139.53;;;8.04;65.04
9141;BME280;46330;50.822;7.126;2023-02-10T10:50:17;103144.81;;;8.07;64.92
9141;BME280;46330;50.822;7.126;2023-02-10T10:52:46;103143.66;;;8.25;64.54
9141;BME280;46330;50.822;7.126;2023-02-10T10:55:22;103145.03;;;8.13;65.53
9141;BME280;46330;50.822;7.126;2023-02-10T10:57:55;103136.88;;;8.30;64.57
9141;BME280;46330;50.822;7.126;2023-02-10T11:00:26;103133.25;;;7.71;66.42
9141;BME280;46330;50.822;7.126;2023-02-10T11:02:57;103129.94;;;7.50;68.00
9141;BME280;46330;50.822;7.126;2023-02-10T11:05:29;103127.88;;;7.67;66.98
9141;BME280;46330;50.822;7.126;2023-02-10T11:07:57;103120.97;;;7.94;66.67
9141;BME280;46330;50.822;7.126;2023-02-10T11:10:30;103119.38;;;7.45;68.01
9141;BME280;46330;50.822;7.126;2023-02-10T11:13:01;103101.88;;;7.95;66.90
9141;BME280;46330;50.822;7.126;2023-02-10T11:15:37;103107.13;;;7.70;67.99
9141;BME280;46330;50.822;7.126;2023-02-10T11:18:12;103103.94;;;8.06;66.38
9141;BME280;46330;50.822;7.126;2023-02-10T11:20:52;103103.34;;;8.73;64.28
9141;BME280;46330;50.822;7.126;2023-02-10T11:23:20;103095.75;;;9.46;61.70
9141;BME280;46330;50.822;7.126;2023-02-10T11:25:56;103093.94;;;9.81;61.49
9141;BME280;46330;50.822;7.126;2023-02-10T11:28:27;103088.72;;;9.11;62.08
9141;BME280;46330;50.822;7.126;2023-02-10T11:30:58;103090.06;;;8.97;62.83
9141;BME280;46330;50.822;7.126;2023-02-10T11:33:29;103084.00;;;8.96;62.76
9141;BME280;46330;50.822;7.126;2023-02-10T11:36:00;103082.84;;;9.54;60.57
9141;BME280;46330;50.822;7.126;2023-02-10T11:38:28;103063.84;;;9.98;59.94
9141;BME280;46330;50.822;7.126;2023-02-10T11:40:58;103068.38;;;10.91;57.03
9141;BME280;46330;50.822;7.126;2023-02-10T11:43:30;103058.38;;;11.16;56.41
9141;BME280;46330;50.822;7.126;2023-02-10T11:46:01;103059.78;;;10.11;57.93
9141;BME280;46330;50.822;7.126;2023-02-10T11:48:30;103059.25;;;9.88;58.35
9141;BME280;46330;50.822;7.126;2023-02-10T11:51:04;103057.56;;;10.29;57.62
9141;BME280;46330;50.822;7.126;2023-02-10T11:53:36;103059.31;;;9.90;58.54
9141;BME280;46330;50.822;7.126;2023-02-10T11:56:07;103060.59;;;10.08;58.57
9141;BME280;46330;50.822;7.126;2023-02-10T11:58:49;103059.72;;;9.35;61.66
9141;BME280;46330;50.822;7.126;2023-02-10T12:01:48;103058.31;;;9.13;62.11
9141;BME280;46330;50.822;7.126;2023-02-10T12:07:22;103035.13;;;9.25;62.97
9141;BME280;46330;50.822;7.126;2023-02-10T12:09:54;103038.81;;;9.33;62.16
9141;BME280;46330;50.822;7.126;2023-02-10T12:12:31;103038.44;;;8.84;63.78
9141;BME280;46330;50.822;7.126;2023-02-10T12:15:15;103033.75;;;9.41;63.32
9141;BME280;46330;50.822;7.126;2023-02-10T12:17:56;103038.31;;;9.13;63.83
9141;BME280;46330;50.822;7.126;2023-02-10T12:20:38;103043.84;;;9.26;62.75
9141;BME280;46330;50.822;7.126;2023-02-10T12:23:32;103039.19;;;9.87;61.16
9141;BME280;46330;50.822;7.126;2023-02-10T12:26:09;103035.31;;;10.49;59.69
9141;BME280;46330;50.822;7.126;2023-02-10T12:28:45;103036.97;;;10.44;59.73
9141;BME280;46330;50.822;7.126;2023-02-10T12:31:25;103031.72;;;10.43;59.09
9141;BME280;46330;50.822;7.126;2023-02-10T12:34:32;103033.56;;;10.95;58.27
9141;BME280;46330;50.822;7.126;2023-02-10T12:37:12;103034.41;;;11.46;55.44
9141;BME280;46330;50.822;7.126;2023-02-10T12:39:52;103025.00;;;11.05;55.11
9141;BME280;46330;50.822;7.126;2023-02-10T12:42:35;103027.94;;;10.75;55.41
9141;BME280;46330;50.822;7.126;2023-02-10T12:45:08;103027.28;;;10.40;56.13
9141;BME280;46330;50.822;7.126;2023-02-10T12:47:47;103018.56;;;10.88;53.87
9141;BME280;46330;50.822;7.126;2023-02-10T12:50:26;103021.25;;;10.91;53.95
9141;BME280;46330;50.822;7.126;2023-02-10T12:53:03;103027.38;;;10.90;55.43
9141;BME280;46330;50.822;7.126;2023-02-10T12:55:46;103010.91;;;10.49;52.82
9141;BME280;46330;50.822;7.126;2023-02-10T12:58:21;103010.47;;;11.25;53.23
9141;BME280;46330;50.822;7.126;2023-02-10T13:00:54;103003.75;;;10.88;53.10
9141;BME280;46330;50.822;7.126;2023-02-10T13:03:29;102994.31;;;10.98;52.42
9141;BME280;46330;50.822;7.126;2023-02-10T13:06:05;102993.22;;;10.85;52.72
9141;BME280;46330;50.822;7.126;2023-02-10T13:08:43;102992.59;;;11.00;50.65
9141;BME280;46330;50.822;7.126;2023-02-10T13:11:19;102984.78;;;11.01;49.67
9141;BME280;46330;50.822;7.126;2023-02-10T13:13:51;102985.34;;;10.37;51.58
9141;BME280;46330;50.822;7.126;2023-02-10T13:16:23;102987.34;;;10.50;51.62
9141;BME280;46330;50.822;7.126;2023-02-10T13:18:59;102979.50;;;10.07;52.34
9141;BME280;46330;50.822;7.126;2023-02-10T13:21:39;102972.81;;;10.19;51.36
9141;BME280;46330;50.822;7.126;2023-02-10T13:24:16;102977.66;;;10.03;53.14
9141;BME280;46330;50.822;7.126;2023-02-10T13:26:53;102978.41;;;9.97;52.90
9141;BME280;46330;50.822;7.126;2023-02-10T13:29:32;102973.59;;;10.14;52.30
9141;BME280;46330;50.822;7.126;2023-02-10T13:32:24;102969.84;;;10.04;52.13